Time;durP1;ratioP1;P1;durP2;ratioP2;P2;SDS_P1;SDS_P2;PMS_P1;PMS_P2;Temp;Humidity;BMP_temperature;BMP_pressure;BME280_temperature;BME280_humidity;BME280_pressure;Samples;Min_cycle;Max_cycle;Signal;HPM_P1;HPM_P2
2023/02/06 00:00:46;;;;;;;7.40;3.50;;;;;;;-0.05;64.24;101959.01;105289;1260;72606;-56
2023/02/06 00:03:13;;;;;;;11.30;3.00;;;;;;;-0.06;64.49;101959.37;105309;1263;60326;-56
2023/02/06 00:05:40;;;;;;;8.70;3.80;;;;;;;-0.08;64.64;101961.11;105379;1260;61016;-56
2023/02/06 00:08:07;;;;;;;7.60;3.20;;;;;;;-0.10;64.74;101959.75;105225;1263;74641;-57
2023/02/06 00:10:35;;;;;;;10.30;4.10;;;;;;;-0.12;64.82;101959.43;105224;1260;71079;-56
2023/02/06 00:13:03;;;;;;;13.10;5.50;;;;;;;-0.15;65.02;101958.77;105319;1263;73540;-57
2023/02/06 00:15:32;;;;;;;10.20;4.90;;;;;;;-0.10;65.18;101961.64;105244;1258;60857;-56
2023/02/06 00:17:58;;;;;;;13.20;4.30;;;;;;;-0.03;65.13;101963.65;105254;1260;61072;-56
2023/02/06 00:20:25;;;;;;;10.90;3.80;;;;;;;-0.04;65.23;101960.38;105270;1262;74682;-57
2023/02/06 00:22:52;;;;;;;11.30;3.50;;;;;;;-0.07;65.38;101959.55;105217;1261;71089;-56
2023/02/06 00:25:19;;;;;;;10.70;4.10;;;;;;;-0.09;65.56;101960.77;105200;1262;73545;-56
2023/02/06 00:27:46;;;;;;;15.40;3.70;;;;;;;-0.12;65.75;101965.27;105320;1261;62099;-56
2023/02/06 00:30:13;;;;;;;12.60;4.00;;;;;;;-0.06;65.85;101965.23;105412;1262;61063;-57
2023/02/06 00:32:41;;;;;;;11.50;3.80;;;;;;;-0.03;66.01;101966.92;105359;1261;73587;-57
2023/02/06 00:35:08;;;;;;;8.80;3.50;;;;;;;-0.03;66.09;101969.69;105398;1262;70992;-56
2023/02/06 00:37:35;;;;;;;8.80;4.00;;;;;;;-0.06;66.29;101963.67;105219;1257;73775;-56
2023/02/06 00:40:04;;;;;;;12.70;4.90;;;;;;;-0.09;66.49;101963.87;105310;1260;60479;-57
2023/02/06 00:42:31;;;;;;;9.20;4.00;;;;;;;-0.09;66.64;101963.88;105218;1258;62114;-56
2023/02/06 00:44:59;;;;;;;10.50;3.90;;;;;;;-0.02;66.78;101963.11;105189;1259;74629;-58
2023/02/06 00:47:26;;;;;;;11.90;5.30;;;;;;;0.01;66.81;101961.88;105262;1258;71087;-56
2023/02/06 00:49:54;;;;;;;14.10;5.70;;;;;;;0.02;67.06;101959.28;105211;1264;73356;-56
2023/02/06 00:52:21;;;;;;;10.50;4.30;;;;;;;-0.02;67.38;101955.70;105494;1258;61009;-57
2023/02/06 00:54:48;;;;;;;12.40;5.10;;;;;;;-0.04;67.67;101953.64;105084;1264;60508;-56
2023/02/06 00:57:15;;;;;;;11.20;4.70;;;;;;;0.01;67.77;101951.54;105360;1260;74775;-56
2023/02/06 00:59:42;;;;;;;8.40;3.20;;;;;;;0.08;67.76;101956.45;105330;1257;70954;-56
2023/02/06 01:02:10;;;;;;;7.90;3.30;;;;;;;0.10;68.32;101956.60;105285;1262;72693;-56
2023/02/06 01:04:37;;;;;;;8.90;4.80;;;;;;;0.06;68.85;101956.64;105307;1257;60442;-57
2023/02/06 01:07:06;;;;;;;11.20;4.50;;;;;;;0.04;69.10;101951.66;105229;1258;61349;-56
2023/02/06 01:09:33;;;;;;;8.80;3.60;;;;;;;0.00;69.25;101952.05;105248;1262;74851;-56
2023/02/06 01:12:00;;;;;;;9.70;3.90;;;;;;;0.03;69.17;101947.54;105235;1260;70926;-57
2023/02/06 01:14:27;;;;;;;10.20;4.10;;;;;;;0.04;69.14;101951.66;105259;1262;73459;-55
2023/02/06 01:16:54;;;;;;;9.30;3.80;;;;;;;0.01;69.53;101953.95;105332;1259;60453;-54
2023/02/06 01:19:20;;;;;;;10.10;5.30;;;;;;;-0.05;69.77;101955.23;105234;1260;61153;-54
2023/02/06 01:21:48;;;;;;;9.20;2.80;;;;;;;-0.13;70.03;101955.80;105399;1260;74388;-55
2023/02/06 01:24:15;;;;;;;10.50;4.00;;;;;;;-0.15;70.52;101959.29;105174;1260;70293;-57
2023/02/06 01:26:43;;;;;;;10.20;4.60;;;;;;;-0.12;70.92;101961.49;105214;1257;73555;-55
2023/02/06 01:29:10;;;;;;;8.50;3.60;;;;;;;-0.10;71.27;101961.98;105258;1258;60559;-55
2023/02/06 01:31:37;;;;;;;7.30;2.50;;;;;;;-0.13;71.57;101966.52;105345;1258;61113;-55
2023/02/06 01:34:06;;;;;;;9.90;3.80;;;;;;;-0.18;71.67;101967.41;105726;1259;74463;-56
2023/02/06 01:36:35;;;;;;;9.40;4.10;;;;;;;-0.22;71.89;101966.42;104990;1260;71264;-55
2023/02/06 01:39:04;;;;;;;10.60;4.00;;;;;;;-0.18;71.67;101964.31;105124;1262;73574;-55
2023/02/06 01:41:30;;;;;;;8.50;3.00;;;;;;;-0.12;71.49;101964.77;105448;1263;61154;-56
2023/02/06 01:44:21;;;;;;;9.10;4.00;;;;;;;-0.08;71.43;101964.05;105301;1260;61218;-56
2023/02/06 01:46:51;;;;;;;8.10;3.80;;;;;;;-0.08;71.54;101969.73;107076;1257;65370;-57
2023/02/06 01:49:28;;;;;;;8.60;3.60;;;;;;;-0.10;71.52;101969.58;105240;1258;71211;-57
2023/02/06 01:52:03;;;;;;;9.80;4.00;;;;;;;-0.11;71.56;101967.02;105213;1260;73445;-57
2023/02/06 01:54:30;;;;;;;9.30;4.10;;;;;;;-0.13;71.44;101967.38;105693;1257;61893;-56
2023/02/06 01:56:59;;;;;;;10.90;4.50;;;;;;;-0.07;71.19;101967.30;105209;1263;61397;-55
2023/02/06 01:59:26;;;;;;;8.80;3.60;;;;;;;0.00;71.05;101966.19;105379;1258;73911;-54
2023/02/06 02:01:54;;;;;;;11.40;3.00;;;;;;;0.03;70.96;101966.33;105027;1264;70260;-56
2023/02/06 02:04:22;;;;;;;10.20;4.10;;;;;;;0.01;70.94;101967.05;105223;1261;73600;-56
2023/02/06 02:06:56;;;;;;;10.90;3.60;;;;;;;0.00;70.96;101969.48;105322;1258;60463;-55
2023/02/06 02:09:23;;;;;;;8.50;2.70;;;;;;;-0.06;70.94;101969.71;105259;1261;60569;-56
2023/02/06 02:11:50;;;;;;;9.30;3.50;;;;;;;-0.07;70.94;101974.55;105203;1262;74868;-55
2023/02/06 02:14:18;;;;;;;8.40;2.90;;;;;;;-0.02;70.89;101977.42;105574;1258;70843;-55
2023/02/06 02:17:17;;;;;;;7.60;3.30;;;;;;;-0.01;70.92;101978.11;105435;1262;72661;-55
2023/02/06 02:19:59;;;;;;;10.70;3.20;;;;;;;-0.07;70.98;101982.84;105169;1259;60491;-56
2023/02/06 02:22:35;;;;;;;10.30;3.30;;;;;;;-0.11;70.96;101983.39;105304;1257;60463;-55
2023/02/06 02:25:12;;;;;;;8.50;3.70;;;;;;;-0.14;71.07;101987.39;105346;1262;66000;-55
2023/02/06 02:27:58;;;;;;;8.60;3.90;;;;;;;-0.12;71.00;101989.27;105143;1260;70170;-55
2023/02/06 02:30:45;;;;;;;6.90;2.80;;;;;;;-0.09;70.70;101993.71;105386;1262;64908;-55
2023/02/06 02:33:31;;;;;;;8.10;3.60;;;;;;;-0.10;70.60;101993.90;105205;1257;60558;-55
2023/02/06 02:36:07;;;;;;;8.70;2.60;;;;;;;-0.15;70.69;101996.01;105291;1258;60479;-54
2023/02/06 02:38:51;;;;;;;6.30;2.70;;;;;;;-0.22;70.71;101995.57;107753;1259;74841;-55
2023/02/06 02:41:24;;;;;;;9.20;3.40;;;;;;;-0.19;70.70;101998.30;105095;1261;62968;-55
2023/02/06 02:44:00;;;;;;;8.10;3.30;;;;;;;-0.12;70.55;101998.58;105092;1260;74047;-57
2023/02/06 02:46:30;;;;;;;9.50;3.20;;;;;;;-0.10;70.57;101998.90;105444;1260;60364;-56
2023/02/06 02:49:01;;;;;;;7.40;2.40;;;;;;;-0.10;70.55;102002.70;105298;1258;61035;-56
2023/02/06 02:51:29;;;;;;;8.10;3.20;;;;;;;-0.12;70.39;102007.20;105108;1264;74774;-54
2023/02/06 02:53:56;;;;;;;9.30;3.00;;;;;;;-0.16;70.34;102009.15;105273;1264;70245;-55
2023/02/06 02:56:24;;;;;;;9.70;3.70;;;;;;;-0.18;70.23;102009.31;105382;1258;72657;-56
2023/02/06 02:59:25;;;;;;;8.10;3.50;;;;;;;-0.10;70.01;102010.81;108178;1259;61117;-57
2023/02/06 03:02:00;;;;;;;10.20;5.50;;;;;;;-0.03;69.56;102012.64;105329;1260;60946;-54
2023/02/06 03:04:34;;;;;;;9.10;3.70;;;;;;;-0.07;69.52;102016.81;105367;1256;74637;-55
2023/02/06 03:07:15;;;;;;;10.50;3.90;;;;;;;-0.11;69.72;102018.75;105444;1254;71496;-55
2023/02/06 03:09:54;;;;;;;7.60;3.30;;;;;;;-0.16;69.62;102019.31;105529;1257;64608;-55
2023/02/06 03:12:23;;;;;;;8.90;3.40;;;;;;;-0.20;69.47;102020.91;105456;1254;60466;-57
2023/02/06 03:14:58;;;;;;;9.30;3.60;;;;;;;-0.14;69.43;102024.66;105293;1257;60753;-56
2023/02/06 03:17:45;;;;;;;10.80;3.60;;;;;;;-0.10;69.22;102023.40;105496;1257;74598;-54
2023/02/06 03:20:13;;;;;;;10.20;4.00;;;;;;;-0.11;69.14;102021.86;105412;1254;62899;-55
2023/02/06 03:22:41;;;;;;;8.90;4.30;;;;;;;-0.12;69.01;102023.42;105374;1254;73496;-55
2023/02/06 03:25:11;;;;;;;9.80;3.70;;;;;;;-0.17;68.88;102023.46;105643;1254;61208;-57
2023/02/06 03:27:39;;;;;;;8.90;4.70;;;;;;;-0.23;68.75;102023.88;105497;1255;61288;-56
2023/02/06 03:30:08;;;;;;;8.70;3.40;;;;;;;-0.34;68.94;102026.73;105326;1260;74638;-55
2023/02/06 03:32:40;;;;;;;10.40;3.70;;;;;;;-0.20;68.72;102029.02;105549;1257;71430;-56
2023/02/06 03:35:15;;;;;;;8.60;3.00;;;;;;;-0.08;68.45;102028.20;105485;1258;72803;-56
2023/02/06 03:37:42;;;;;;;8.00;3.10;;;;;;;-0.07;68.40;102031.14;105482;1259;60500;-56
2023/02/06 03:40:29;;;;;;;8.80;3.10;;;;;;;-0.05;68.48;102035.77;105295;1259;60519;-56
2023/02/06 03:42:57;;;;;;;7.40;2.70;;;;;;;-0.05;68.31;102039.91;105334;1260;75094;-56
2023/02/06 03:45:30;;;;;;;9.50;4.30;;;;;;;-0.09;68.12;102042.54;105494;1254;71287;-55
2023/02/06 03:48:01;;;;;;;7.80;3.10;;;;;;;-0.13;67.97;102045.00;105633;1259;72681;-55
2023/02/06 03:50:30;;;;;;;10.10;4.10;;;;;;;-0.11;67.80;102042.39;105414;1254;61208;-55
2023/02/06 03:52:58;;;;;;;7.60;2.90;;;;;;;-0.07;67.34;102040.80;106321;1259;61083;-56
2023/02/06 03:55:25;;;;;;;7.40;2.90;;;;;;;-0.08;67.21;102044.09;105462;1259;74932;-56
2023/02/06 03:58:00;;;;;;;6.70;2.40;;;;;;;-0.12;67.30;102042.58;105472;1254;71968;-56
2023/02/06 04:00:28;;;;;;;8.20;3.30;;;;;;;-0.18;67.27;102042.96;105549;1255;73631;-56
2023/02/06 04:02:55;;;;;;;8.00;3.40;;;;;;;-0.23;67.21;102042.67;105258;1262;60447;-56
2023/02/06 04:05:22;;;;;;;7.80;3.40;;;;;;;-0.27;67.27;102046.84;105369;1254;61105;-56
2023/02/06 04:07:51;;;;;;;7.90;2.60;;;;;;;-0.22;67.10;102049.21;105480;1258;74965;-57
2023/02/06 04:10:18;;;;;;;7.60;2.80;;;;;;;-0.18;66.92;102052.62;105329;1254;71497;-57
2023/02/06 04:12:45;;;;;;;9.20;3.90;;;;;;;-0.24;66.80;102052.16;105557;1258;73679;-56
2023/02/06 04:15:13;;;;;;;9.20;3.50;;;;;;;-0.27;66.75;102049.08;105390;1254;60561;-56
2023/02/06 04:17:41;;;;;;;7.80;3.20;;;;;;;-0.32;66.66;102047.58;105506;1254;61328;-55
2023/02/06 04:20:25;;;;;;;7.90;3.10;;;;;;;-0.35;66.71;102050.69;105502;1259;66171;-55
2023/02/06 04:22:53;;;;;;;10.90;4.30;;;;;;;-0.32;66.70;102052.58;105527;1254;71018;-55
2023/02/06 04:25:19;;;;;;;8.50;3.30;;;;;;;-0.26;66.57;102062.52;105362;1259;73855;-55
2023/02/06 04:27:46;;;;;;;8.20;3.00;;;;;;;-0.25;66.73;102059.93;105508;1257;60487;-55
2023/02/06 04:30:14;;;;;;;8.90;4.30;;;;;;;-0.26;66.69;102062.70;105311;1259;61277;-57
2023/02/06 04:32:41;;;;;;;9.60;3.90;;;;;;;-0.27;66.68;102065.30;105546;1257;73525;-56
2023/02/06 04:35:08;;;;;;;8.80;3.70;;;;;;;-0.31;66.58;102063.08;105435;1254;71114;-58
2023/02/06 04:37:36;;;;;;;10.70;3.90;;;;;;;-0.35;66.43;102065.88;105344;1256;73590;-57
2023/02/06 04:40:04;;;;;;;9.40;4.70;;;;;;;-0.36;66.38;102063.80;105303;1254;61927;-58
2023/02/06 04:42:31;;;;;;;12.50;4.20;;;;;;;-0.34;66.40;102067.77;105658;1257;61149;-58
2023/02/06 04:44:58;;;;;;;9.90;3.30;;;;;;;-0.42;66.73;102067.48;105777;1255;72622;-57
2023/02/06 04:47:25;;;;;;;13.10;5.50;;;;;;;-0.46;66.80;102070.95;105468;1254;71147;-57
2023/02/06 04:49:52;;;;;;;9.50;4.50;;;;;;;-0.50;66.90;102072.86;105414;1259;73342;-57
2023/02/06 04:52:20;;;;;;;11.10;5.30;;;;;;;-0.55;67.03;102070.66;105414;1259;60955;-57
2023/02/06 04:54:47;;;;;;;10.80;4.30;;;;;;;-0.51;67.04;102073.73;105479;1254;61137;-57
2023/02/06 04:57:14;;;;;;;9.70;3.70;;;;;;;-0.44;67.05;102074.05;105191;1258;74807;-57
2023/02/06 04:59:41;;;;;;;9.70;4.10;;;;;;;-0.44;67.11;102074.91;105396;1259;71031;-57
2023/02/06 05:02:08;;;;;;;9.60;3.40;;;;;;;-0.48;67.15;102076.48;105502;1254;73385;-57
2023/02/06 05:04:35;;;;;;;8.00;3.70;;;;;;;-0.51;67.21;102077.54;105484;1254;60557;-57
2023/02/06 05:07:02;;;;;;;9.10;3.50;;;;;;;-0.52;67.22;102077.89;105500;1256;61045;-57
2023/02/06 05:09:32;;;;;;;7.00;3.50;;;;;;;-0.47;67.23;102079.23;105564;1259;74868;-57
2023/02/06 05:11:59;;;;;;;9.90;4.90;;;;;;;-0.41;67.09;102076.95;105495;1259;71520;-57
2023/02/06 05:14:27;;;;;;;10.90;4.20;;;;;;;-0.42;67.07;102076.27;105284;1254;73567;-57
2023/02/06 05:16:56;;;;;;;11.10;4.20;;;;;;;-0.44;67.06;102076.80;105443;1254;62252;-57
2023/02/06 05:19:22;;;;;;;9.20;3.90;;;;;;;-0.48;66.88;102075.27;105408;1258;60542;-57
2023/02/06 05:21:49;;;;;;;8.50;3.90;;;;;;;-0.53;66.80;102074.27;105496;1258;74620;-58
2023/02/06 05:24:17;;;;;;;8.40;3.00;;;;;;;-0.54;66.79;102077.73;105453;1254;70264;-58
2023/02/06 05:26:45;;;;;;;7.40;3.00;;;;;;;-0.50;66.73;102077.02;105608;1258;72599;-57
2023/02/06 05:29:12;;;;;;;8.10;3.60;;;;;;;-0.48;66.69;102076.30;105392;1254;60543;-56
2023/02/06 05:31:39;;;;;;;10.00;4.20;;;;;;;-0.50;66.37;102076.66;105414;1254;61093;-55
2023/02/06 05:34:08;;;;;;;10.90;3.90;;;;;;;-0.51;66.23;102077.88;105473;1258;74636;-55
2023/02/06 05:36:35;;;;;;;10.30;3.90;;;;;;;-0.55;66.39;102081.52;105726;1257;71228;-56
2023/02/06 05:39:03;;;;;;;10.50;4.00;;;;;;;-0.57;66.65;102079.65;105467;1259;73261;-57
2023/02/06 05:41:31;;;;;;;6.90;3.30;;;;;;;-0.53;66.39;102080.98;105490;1260;60991;-56
2023/02/06 05:43:58;;;;;;;7.40;3.90;;;;;;;-0.45;66.25;102081.46;105363;1255;61246;-57
2023/02/06 05:46:25;;;;;;;8.20;3.80;;;;;;;-0.43;66.15;102081.61;105528;1258;74758;-55
2023/02/06 05:48:52;;;;;;;8.80;3.80;;;;;;;-0.43;65.99;102080.94;105449;1254;71212;-56
2023/02/06 05:51:19;;;;;;;9.20;3.90;;;;;;;-0.46;66.03;102081.46;105590;1254;73584;-55
2023/02/06 05:53:46;;;;;;;11.40;3.90;;;;;;;-0.52;65.99;102083.91;105365;1254;60509;-56
2023/02/06 05:56:13;;;;;;;11.20;2.60;;;;;;;-0.52;66.06;102089.79;105522;1259;61106;-56
2023/02/06 05:58:40;;;;;;;9.20;3.60;;;;;;;-0.46;65.95;102091.64;105487;1258;74812;-55
2023/02/06 06:01:07;;;;;;;10.10;4.00;;;;;;;-0.39;65.83;102095.38;105552;1259;71125;-56
2023/02/06 06:03:37;;;;;;;8.90;4.70;;;;;;;-0.39;65.77;102095.21;105490;1259;73654;-56
2023/02/06 06:06:05;;;;;;;8.00;3.40;;;;;;;-0.41;65.62;102096.27;105250;1254;60860;-55
2023/02/06 06:08:33;;;;;;;7.80;3.30;;;;;;;-0.43;65.75;102096.62;107420;1254;62885;-56
2023/02/06 06:11:01;;;;;;;8.00;2.90;;;;;;;-0.47;65.69;102097.52;105534;1257;74837;-58
2023/02/06 06:13:29;;;;;;;8.80;4.50;;;;;;;-0.52;65.65;102095.13;105441;1257;71335;-57
2023/02/06 06:15:56;;;;;;;10.40;4.10;;;;;;;-0.49;65.60;102093.39;105421;1254;73505;-57
2023/02/06 06:18:24;;;;;;;12.30;4.10;;;;;;;-0.42;65.45;102096.10;105437;1256;60581;-57
2023/02/06 06:20:51;;;;;;;9.00;3.80;;;;;;;-0.40;65.53;102096.25;105365;1254;61194;-57
2023/02/06 06:23:19;;;;;;;8.30;3.20;;;;;;;-0.39;65.53;102095.90;105420;1260;74653;-57
2023/02/06 06:25:46;;;;;;;9.70;3.80;;;;;;;-0.42;65.22;102091.79;105437;1254;70219;-57
2023/02/06 06:28:14;;;;;;;6.90;2.80;;;;;;;-0.49;65.12;102096.67;105284;1258;73627;-57
2023/02/06 06:30:41;;;;;;;9.60;4.00;;;;;;;-0.56;65.38;102103.77;105357;1254;60561;-56
2023/02/06 06:33:09;;;;;;;10.70;4.40;;;;;;;-0.56;65.60;102103.25;105459;1257;61047;-57
2023/02/06 06:35:36;;;;;;;9.70;4.30;;;;;;;-0.49;65.29;102101.31;105620;1259;74612;-56
2023/02/06 06:38:03;;;;;;;8.70;3.60;;;;;;;-0.45;65.20;102108.02;105450;1254;70140;-57
2023/02/06 06:40:30;;;;;;;7.30;3.70;;;;;;;-0.48;64.93;102107.34;105216;1258;263599;-57
2023/02/06 06:46:04;;;;;;;9.50;3.50;;;;;;;-0.65;65.48;102106.59;102443;1295;602455;-56
2023/02/06 06:48:35;;;;;;;7.60;3.30;;;;;;;-0.46;65.04;102103.54;104710;1266;61950;-55
2023/02/06 06:51:04;;;;;;;10.00;3.40;;;;;;;-0.37;64.80;102108.82;104890;1267;63447;-55
2023/02/06 06:53:33;;;;;;;10.30;3.20;;;;;;;-0.34;64.62;102108.98;104698;1267;71904;-56
2023/02/06 06:56:03;;;;;;;10.60;4.00;;;;;;;-0.36;64.52;102110.18;104561;1266;71069;-56
2023/02/06 06:58:31;;;;;;;7.80;3.20;;;;;;;-0.35;64.49;102111.57;104576;1270;168510;-56
2023/02/06 07:01:00;;;;;;;8.60;2.90;;;;;;;-0.38;64.49;102110.55;104885;1267;60446;-56
2023/02/06 07:03:29;;;;;;;9.30;3.30;;;;;;;-0.43;64.73;102113.34;105125;1264;61380;-55
2023/02/06 07:05:58;;;;;;;9.60;4.50;;;;;;;-0.45;64.81;102114.21;104848;1267;73181;-56
2023/02/06 07:08:28;;;;;;;6.90;3.20;;;;;;;-0.35;64.65;102116.23;104716;1267;71255;-56
2023/02/06 07:10:57;;;;;;;9.70;3.90;;;;;;;-0.25;64.63;102118.56;104655;1263;73464;-56
2023/02/06 07:13:27;;;;;;;8.70;4.30;;;;;;;-0.21;64.57;102117.50;104813;1264;60817;-56
2023/02/06 07:15:55;;;;;;;9.30;2.70;;;;;;;-0.20;64.41;102123.17;104688;1264;61134;-56
2023/02/06 07:18:24;;;;;;;9.40;3.80;;;;;;;-0.21;64.32;102125.27;104848;1263;74054;-55
2023/02/06 07:20:52;;;;;;;9.20;3.20;;;;;;;-0.23;64.44;102127.00;104655;1263;70301;-56
2023/02/06 07:23:21;;;;;;;8.00;3.10;;;;;;;-0.23;64.35;102133.04;104773;1264;73370;-55
2023/02/06 07:25:49;;;;;;;9.00;3.90;;;;;;;-0.24;64.35;102128.56;104673;1263;62186;-55
2023/02/06 07:28:18;;;;;;;8.70;2.90;;;;;;;-0.16;64.22;102134.54;104786;1264;61353;-56
2023/02/06 07:30:46;;;;;;;8.10;3.60;;;;;;;-0.10;63.98;102133.11;104777;1267;74014;-55
2023/02/06 07:33:15;;;;;;;9.10;4.00;;;;;;;-0.09;63.73;102132.61;104859;1264;71500;-56
2023/02/06 07:35:43;;;;;;;9.40;3.60;;;;;;;-0.10;63.67;102138.12;105150;1259;73496;-56
2023/02/06 07:38:12;;;;;;;9.90;3.70;;;;;;;-0.20;63.97;102134.58;105159;1256;60863;-56
2023/02/06 07:40:40;;;;;;;8.00;3.60;;;;;;;-0.25;64.30;102137.36;105225;1254;61265;-55
2023/02/06 07:43:15;;;;;;;10.80;4.20;;;;;;;-0.08;64.07;102140.18;105257;1255;72773;-56
2023/02/06 07:45:43;;;;;;;12.30;4.00;;;;;;;-0.14;64.02;102136.77;105163;1256;71305;-55
2023/02/06 07:48:11;;;;;;;7.40;3.10;;;;;;;-0.08;63.65;102138.80;106507;1255;73560;-56
2023/02/06 07:50:40;;;;;;;11.60;5.10;;;;;;;0.01;63.44;102137.17;105283;1257;60418;-57
2023/02/06 08:04:49;;;;;;;10.60;4.30;;;;;;;0.27;62.98;102134.84;103199;1284;605766;-51
2023/02/06 08:07:16;;;;;;;8.80;3.20;;;;;;;0.70;61.67;102134.80;104795;1263;79329;-51
2023/02/06 08:09:43;;;;;;;12.40;3.60;;;;;;;0.65;61.32;102135.90;104795;1264;60293;-50
2023/02/06 08:12:10;;;;;;;8.70;2.70;;;;;;;0.60;61.60;102136.46;104868;1264;72041;-50
2023/02/06 08:14:38;;;;;;;8.30;3.30;;;;;;;0.54;61.80;102140.34;104890;1263;71240;-51
2023/02/06 08:17:06;;;;;;;9.90;3.70;;;;;;;0.49;62.06;102141.06;104889;1263;72777;-51
2023/02/06 08:19:33;;;;;;;11.00;4.50;;;;;;;0.45;62.00;102142.14;104883;1264;61935;-50
2023/02/06 08:22:00;;;;;;;11.30;4.80;;;;;;;0.51;61.89;102145.38;105019;1264;61472;-51
2023/02/06 08:24:28;;;;;;;9.40;4.00;;;;;;;0.55;61.93;102145.86;104990;1263;73159;-51
2023/02/06 08:26:55;;;;;;;8.90;4.00;;;;;;;0.53;61.65;102147.25;105034;1264;71061;-51
2023/02/06 08:29:22;;;;;;;8.90;3.20;;;;;;;0.48;61.42;102148.50;104902;1264;73813;-50
2023/02/06 08:31:50;;;;;;;11.20;2.60;;;;;;;0.28;61.90;102147.13;104943;1267;60079;-50
2023/02/06 08:34:16;;;;;;;10.10;4.60;;;;;;;0.21;61.72;102149.44;104717;1263;61051;-50
2023/02/06 08:36:44;;;;;;;7.00;2.90;;;;;;;0.18;61.63;102148.78;104929;1267;73852;-52
2023/02/06 08:39:12;;;;;;;7.50;3.30;;;;;;;0.19;61.60;102148.59;104954;1264;71686;-50
2023/02/06 08:41:40;;;;;;;7.70;3.00;;;;;;;0.26;60.85;102148.88;104899;1267;73501;-51
2023/02/06 08:44:11;;;;;;;8.30;3.50;;;;;;;0.27;60.57;102151.98;105015;1263;60322;-51
2023/02/06 08:46:38;;;;;;;7.90;2.90;;;;;;;0.22;60.14;102152.20;104943;1268;61032;-52
2023/02/06 08:49:14;;;;;;;8.10;3.10;;;;;;;0.18;60.38;102154.14;105575;1256;73818;-52
2023/02/06 08:51:41;;;;;;;;;;;;;;;0.17;60.80;102156.89;105582;1257;70861;-52
2023/02/06 08:54:10;;;;;;;8.60;3.10;;;;;;;0.17;60.95;102158.62;105488;1259;73448;-50
2023/02/06 08:56:38;;;;;;;10.20;4.40;;;;;;;0.17;60.37;102157.41;105562;1255;59739;-50
2023/02/06 08:59:06;;;;;;;6.10;3.90;;;;;;;0.17;60.21;102160.00;105345;1257;61161;-52
2023/02/06 09:01:35;;;;;;;8.20;4.00;;;;;;;0.16;60.55;102161.39;105493;1257;72819;-52
2023/02/06 09:04:05;;;;;;;7.10;2.70;;;;;;;0.22;60.48;102159.45;105371;1258;71123;-50
2023/02/06 09:06:33;;;;;;;6.40;2.70;;;;;;;0.33;59.86;102157.79;105492;1257;73540;-52
2023/02/06 09:09:02;;;;;;;8.60;3.40;;;;;;;0.40;59.60;102153.76;105560;1256;60045;-51
2023/02/06 09:11:30;;;;;;;9.30;3.40;;;;;;;0.42;59.33;102154.95;105451;1256;61302;-50
2023/02/06 09:13:58;;;;;;;10.20;3.70;;;;;;;0.45;58.99;102157.15;105570;1260;74040;-52
2023/02/06 09:16:26;;;;;;;9.70;2.80;;;;;;;0.44;59.22;102155.10;105419;1260;71390;-52
2023/02/06 09:18:53;;;;;;;12.70;4.60;;;;;;;0.45;59.31;102152.49;105608;1259;73641;-49
2023/02/06 09:21:23;;;;;;;7.20;3.20;;;;;;;0.44;59.07;102148.36;105519;1257;59595;-50
2023/02/06 09:23:54;;;;;;;10.10;3.70;;;;;;;0.38;58.97;102154.30;105504;1257;60155;-49
2023/02/06 09:26:23;;;;;;;8.30;3.70;;;;;;;0.36;59.01;102151.03;105384;1260;73919;-53
2023/02/06 09:28:51;;;;;;;8.70;3.70;;;;;;;0.39;58.84;102153.07;105436;1257;71661;-52
2023/02/06 09:31:19;;;;;;;8.90;2.40;;;;;;;0.46;57.88;102152.31;105394;1257;73753;-53
2023/02/06 09:33:45;;;;;;;10.10;3.50;;;;;;;0.50;57.31;102154.86;105337;1260;60400;-51
2023/02/06 09:36:14;;;;;;;7.20;3.30;;;;;;;0.51;57.55;102156.42;105444;1257;60857;-53
2023/02/06 09:38:43;;;;;;;7.60;3.50;;;;;;;0.51;57.67;102158.31;105329;1260;74154;-51
2023/02/06 09:41:29;;;;;;;10.00;3.20;;;;;;;0.54;57.64;102158.29;105492;1257;71179;-52
2023/02/06 09:44:04;;;;;;;6.10;2.50;;;;;;;0.53;56.37;102153.29;105475;1256;73671;-51
2023/02/06 09:46:33;;;;;;;7.80;3.10;;;;;;;0.54;56.70;102154.14;105406;1256;60153;-53
2023/02/06 09:49:09;;;;;;;5.50;2.20;;;;;;;0.56;56.70;102152.74;105337;1257;59993;-52
2023/02/06 09:52:03;;;;;;;9.90;2.80;;;;;;;0.53;56.22;102153.98;105413;1260;74038;-53
2023/02/06 09:57:30;;;;;;;7.10;2.40;;;;;;;0.39;56.79;102147.04;102154;1294;603826;-73
2023/02/06 10:00:01;;;;;;;11.20;4.20;;;;;;;0.45;56.75;102148.88;106598;1265;59407;-74
2023/02/06 10:03:24;;;;;;;6.00;1.90;;;;;;;0.45;56.22;102149.56;106016;1266;61491;-73
2023/02/06 10:06:10;;;;;;;6.50;3.00;;;;;;;0.42;54.72;102146.49;104590;1275;72941;-74
2023/02/06 10:08:47;;;;;;;6.80;2.20;;;;;;;0.37;54.83;102149.48;104688;1266;71243;-73
2023/02/06 10:11:29;;;;;;;6.60;2.50;;;;;;;0.36;54.96;102152.59;104764;1266;174245;-73
2023/02/06 10:13:59;;;;;;;6.80;2.40;;;;;;;0.34;54.82;102156.06;105004;1266;60573;-75
2023/02/06 10:16:36;;;;;;;6.90;2.50;;;;;;;0.29;54.09;102148.16;104908;1263;61046;-75
2023/02/06 10:19:20;;;;;;;4.70;1.50;;;;;;;0.22;53.92;102149.25;104890;1264;72154;-74
2023/02/06 10:22:06;;;;;;;8.30;2.50;;;;;;;0.15;53.92;102147.58;104713;1265;71184;-75
2023/02/06 10:25:14;;;;;;;5.10;1.80;;;;;;;0.09;53.65;102149.19;104721;1264;71752;-73
2023/02/06 10:27:43;;;;;;;5.90;2.10;;;;;;;0.05;53.19;102146.64;104908;1263;59663;-73
